Portada
METAR-TAF:

METAR-TAF

Aeropuertos :

Acajutla, El Salvador

latitud: 13-34N, longitud: 089-50W, altitud: 15 m

Observación

El informe se hizo hace 15 horas y 27 minutos, a las 22:50 UTC
Viento 2 kt del sureste
Temperatura 28°C
Humedad 94%
Presión 1006 hPa
Visibilidad 10 km o más
Nubes dispersas a una altura de 4700 ft
llovizna,

METAR: MSAC 192250Z 13002KT 9999 DZ SCT047 28/27 Q1005 A2970

Hora: 08:17 (14:17 UTC)


TAF: falta

Observaciones y pronósticos meteorológicos de más de 4000 aeropuertos (mensajes METAR y TAF).

Los puntos amarillos y rojos representan las estaciones disponibles.

Ponga el ratón en el punto deseado para ver el nombre de la estación.

Haga clic para ver las observaciones y los pronósticos meteorológicos.

Para cambiar el mapa : haga clic en los botones verdes con una cruz de color negro para hacer un zoom, en el botón verde con un guión para alejar o en las flechas verdes para mapas adyacentes.


METAR-TAF: